createdAt,value
2017-06-12T00:00:06.535Z,66.90
2017-06-12T00:02:34.077Z,66.80
2017-06-12T00:05:01.771Z,66.20
2017-06-12T00:07:29.319Z,66.00
2017-06-12T00:09:57.033Z,66.10
2017-06-12T00:12:24.582Z,66.00
2017-06-12T00:14:52.598Z,65.90
2017-06-12T00:17:20.144Z,65.50
2017-06-12T00:19:47.904Z,65.10
2017-06-12T00:22:15.455Z,64.90
2017-06-12T00:24:42.997Z,65.00
2017-06-12T00:27:10.690Z,64.80
2017-06-12T00:29:38.425Z,64.70
2017-06-12T00:32:06.107Z,64.60
2017-06-12T00:34:33.651Z,64.60
2017-06-12T00:37:01.283Z,64.40
2017-06-12T00:39:28.835Z,64.30
2017-06-12T00:41:56.374Z,64.20
2017-06-12T00:44:24.226Z,64.00
2017-06-12T00:46:51.846Z,63.90
2017-06-12T00:49:19.397Z,63.90
2017-06-12T00:51:46.951Z,63.60
2017-06-12T00:54:15.304Z,63.90
2017-06-12T00:56:42.849Z,63.80
2017-06-12T00:59:10.742Z,63.70
2017-06-12T01:01:38.287Z,63.60
2017-06-12T01:04:05.837Z,63.40
2017-06-12T01:06:33.421Z,63.40
2017-06-12T01:09:01.028Z,63.40
2017-06-12T01:11:28.578Z,63.10
2017-06-12T01:13:57.559Z,62.90
2017-06-12T01:16:25.499Z,63.00
2017-06-12T01:18:53.046Z,63.90
2017-06-12T01:21:20.594Z,63.10
2017-06-12T01:23:48.188Z,63.00
2017-06-12T01:26:15.775Z,62.90
2017-06-12T01:28:43.339Z,62.80
2017-06-12T01:31:11.981Z,63.00
2017-06-12T01:33:40.261Z,63.00
2017-06-12T01:36:08.029Z,63.20
2017-06-12T01:38:35.577Z,63.10
2017-06-12T01:41:03.131Z,63.20
2017-06-12T01:43:31.016Z,63.40
2017-06-12T01:45:58.571Z,63.60
2017-06-12T01:48:26.119Z,63.60
2017-06-12T01:50:53.706Z,63.40
2017-06-12T01:53:21.254Z,63.30
2017-06-12T01:55:48.842Z,63.20
2017-06-12T01:58:16.386Z,63.00
2017-06-12T02:00:44.038Z,62.80
2017-06-12T02:03:11.789Z,63.00
2017-06-12T02:05:39.340Z,63.10
2017-06-12T02:08:06.886Z,63.10
2017-06-12T02:10:34.477Z,63.10
2017-06-12T02:13:02.023Z,63.20
2017-06-12T02:15:29.787Z,63.00
2017-06-12T02:17:57.337Z,62.80
2017-06-12T02:20:24.926Z,62.50
2017-06-12T02:22:52.472Z,61.40
2017-06-12T02:25:20.057Z,60.50
2017-06-12T02:27:47.641Z,59.90
2017-06-12T02:30:15.187Z,59.50
2017-06-12T02:32:43.245Z,58.90
2017-06-12T02:35:11.150Z,58.50
2017-06-12T02:37:38.710Z,58.20
2017-06-12T02:40:06.315Z,57.60
2017-06-12T02:42:33.863Z,57.20
2017-06-12T02:45:01.447Z,56.90
2017-06-12T02:47:28.997Z,56.70
2017-06-12T02:49:56.881Z,56.50
2017-06-12T02:52:24.421Z,56.40
2017-06-12T02:54:51.965Z,56.30
2017-06-12T02:57:19.550Z,56.10
2017-06-12T02:59:47.094Z,55.70
2017-06-12T03:02:14.686Z,55.90
2017-06-12T03:04:42.232Z,55.80
2017-06-12T03:07:09.782Z,55.70
2017-06-12T03:09:37.777Z,55.40
2017-06-12T03:12:05.319Z,55.40
2017-06-12T03:14:32.911Z,55.20
2017-06-12T03:17:00.465Z,55.20
2017-06-12T03:19:28.073Z,55.00
2017-06-12T03:21:55.613Z,55.10
2017-06-12T03:24:23.158Z,55.10
2017-06-12T03:26:50.921Z,54.90
2017-06-12T03:29:18.458Z,54.80
2017-06-12T03:31:46.003Z,55.00
2017-06-12T03:34:13.713Z,55.00
2017-06-12T03:36:42.446Z,54.50
2017-06-12T03:39:10.186Z,54.80
2017-06-12T03:41:37.781Z,54.80
2017-06-12T03:44:05.343Z,54.70
2017-06-12T03:46:33.108Z,54.70
2017-06-12T03:49:00.683Z,54.80
2017-06-12T03:51:28.221Z,54.80
2017-06-12T03:53:55.946Z,54.70
2017-06-12T03:56:24.245Z,55.00
2017-06-12T03:58:51.793Z,54.90
2017-06-12T04:01:20.263Z,54.70
2017-06-12T04:03:48.578Z,54.80
2017-06-12T04:06:16.246Z,54.80
2017-06-12T04:08:43.789Z,54.90
2017-06-12T04:11:11.385Z,55.00
2017-06-12T04:13:38.926Z,54.90
2017-06-12T04:16:06.497Z,54.80
2017-06-12T04:18:34.298Z,55.00
2017-06-12T04:21:01.850Z,54.90
2017-06-12T04:23:29.395Z,54.80
2017-06-12T04:25:57.052Z,54.80
2017-06-12T04:28:24.626Z,55.00
2017-06-12T04:30:52.169Z,55.30
2017-06-12T04:33:19.746Z,55.30
2017-06-12T04:35:47.346Z,55.10
2017-06-12T04:38:15.953Z,55.10
2017-06-12T04:40:44.841Z,55.10
2017-06-12T04:43:12.454Z,55.00
2017-06-12T04:45:40.002Z,54.90
2017-06-12T04:48:07.694Z,55.00
2017-06-12T04:50:35.238Z,55.30
2017-06-12T04:53:02.837Z,55.50
2017-06-12T05:27:14.695Z,55.70
2017-06-12T05:29:42.229Z,55.90
2017-06-12T05:32:09.773Z,56.20
2017-06-12T05:34:37.402Z,56.20
2017-06-12T05:37:04.950Z,56.40
2017-06-12T05:39:32.496Z,57.10
2017-06-12T05:42:00.081Z,56.70
2017-06-12T05:44:27.819Z,56.80
2017-06-12T05:46:55.397Z,56.90
2017-06-12T05:49:23.043Z,57.00
2017-06-12T05:51:50.583Z,56.80
2017-06-12T05:54:18.117Z,57.40
2017-06-12T05:56:45.693Z,57.20
2017-06-12T05:59:13.269Z,57.20
2017-06-12T06:01:40.801Z,57.20
2017-06-12T06:04:09.856Z,57.00
2017-06-12T06:06:37.407Z,57.20
2017-06-12T06:09:04.999Z,57.40
2017-06-12T06:11:33.360Z,58.00
2017-06-12T06:14:00.939Z,57.90
2017-06-12T06:16:29.290Z,58.30
2017-06-12T06:18:56.838Z,58.20
2017-06-12T06:21:24.815Z,58.30
2017-06-12T06:23:52.351Z,58.50
2017-06-12T06:26:19.893Z,58.40
2017-06-12T06:28:48.118Z,58.40
2017-06-12T06:31:15.654Z,58.60
2017-06-12T06:33:43.198Z,58.60
2017-06-12T06:36:10.970Z,58.60
2017-06-12T06:38:38.513Z,58.70
2017-06-12T06:41:06.054Z,58.70
2017-06-12T06:43:34.442Z,59.30
2017-06-12T06:46:01.990Z,59.20
2017-06-12T06:48:30.297Z,58.90
2017-06-12T06:50:57.910Z,58.90
2017-06-12T06:53:25.513Z,59.10
2017-06-12T06:55:53.057Z,59.20
2017-06-12T06:58:21.509Z,59.40
2017-06-12T07:00:49.050Z,59.40
2017-06-12T07:03:16.594Z,59.30
2017-06-12T07:05:45.410Z,59.00
2017-06-12T07:08:12.950Z,58.90
2017-06-12T07:10:40.503Z,58.90
2017-06-12T07:13:08.125Z,59.00
2017-06-12T07:15:36.712Z,59.00
2017-06-12T07:18:04.255Z,59.00
2017-06-12T07:20:31.938Z,59.70
2017-06-12T07:22:59.486Z,59.30
2017-06-12T07:25:27.798Z,58.50
2017-06-12T07:27:55.375Z,58.40
2017-06-12T07:30:23.269Z,58.30
2017-06-12T07:32:50.812Z,58.30
2017-06-12T07:35:18.358Z,58.20
2017-06-12T07:37:46.045Z,58.40
2017-06-12T07:40:13.581Z,58.80
2017-06-12T07:42:41.123Z,58.90
2017-06-12T07:45:08.730Z,58.90
2017-06-12T07:47:36.274Z,58.70
2017-06-12T07:50:03.829Z,59.10
2017-06-12T07:52:31.515Z,59.00
2017-06-12T07:54:59.086Z,58.50
2017-06-12T07:57:26.622Z,58.40
2017-06-12T07:59:54.216Z,58.70
2017-06-12T08:02:21.769Z,58.80
2017-06-12T08:04:50.285Z,58.10
2017-06-12T08:07:17.837Z,58.10
2017-06-12T08:09:45.378Z,57.90
2017-06-12T08:12:13.768Z,57.40
2017-06-12T08:14:42.074Z,58.00
2017-06-12T08:17:09.999Z,58.00
2017-06-12T08:19:37.546Z,58.30
2017-06-12T08:22:05.421Z,58.50
2017-06-12T08:24:32.961Z,58.00
2017-06-12T08:27:00.498Z,57.70
2017-06-12T08:29:28.122Z,57.70
2017-06-12T08:31:55.663Z,57.00
2017-06-12T08:34:23.214Z,57.20
2017-06-12T08:36:51.442Z,57.00
2017-06-12T08:39:18.994Z,56.80
2017-06-12T08:41:46.537Z,56.10
2017-06-12T08:44:14.122Z,55.40
2017-06-12T08:46:41.702Z,55.30
2017-06-12T08:49:09.246Z,55.00
2017-06-12T08:51:36.841Z,54.60
2017-06-12T08:54:04.378Z,54.30
2017-06-12T08:56:31.944Z,54.30
2017-06-12T08:59:00.033Z,54.10
2017-06-12T09:01:27.577Z,54.00
2017-06-12T09:03:55.158Z,53.80
2017-06-12T09:06:23.129Z,53.50
2017-06-12T09:08:50.666Z,53.40
2017-06-12T09:11:18.213Z,53.20
2017-06-12T09:13:45.803Z,52.90
2017-06-12T09:16:13.526Z,52.40
2017-06-12T09:18:41.390Z,51.80
2017-06-12T09:21:08.993Z,51.20
2017-06-12T09:23:36.536Z,51.20
2017-06-12T09:26:04.179Z,50.90
2017-06-12T09:28:31.730Z,50.50
2017-06-12T09:30:59.278Z,50.50
2017-06-12T09:33:27.752Z,50.80
2017-06-12T09:35:55.297Z,50.60
2017-06-12T09:38:26.821Z,50.30
2017-06-12T09:40:54.382Z,50.40
2017-06-12T09:43:21.928Z,50.50
2017-06-12T09:45:49.562Z,50.20
2017-06-12T09:48:17.110Z,50.10
2017-06-12T09:50:45.656Z,49.30
2017-06-12T09:53:13.210Z,49.20
2017-06-12T09:55:41.205Z,48.90
2017-06-12T09:58:09.528Z,49.40
2017-06-12T10:00:37.089Z,49.60
2017-06-12T10:03:04.685Z,49.20
2017-06-12T10:05:32.233Z,48.80
2017-06-12T10:07:59.982Z,48.80
2017-06-12T10:10:27.568Z,49.00
2017-06-12T10:12:55.117Z,49.10
2017-06-12T10:15:22.738Z,49.50
2017-06-12T10:17:50.439Z,50.00
2017-06-12T10:20:18.010Z,49.50
2017-06-12T10:22:45.833Z,48.70
2017-06-12T10:25:14.654Z,48.50
2017-06-12T10:27:42.238Z,48.60
2017-06-12T10:30:09.782Z,48.60
2017-06-12T10:32:37.562Z,48.40
2017-06-12T10:35:05.114Z,48.10
2017-06-12T10:37:32.718Z,48.30
2017-06-12T10:40:01.201Z,48.40
2017-06-12T10:42:29.519Z,47.60
2017-06-12T10:44:57.146Z,47.60
2017-06-12T10:47:24.751Z,47.70
2017-06-12T10:49:52.342Z,47.70
2017-06-12T10:52:21.173Z,47.50
2017-06-12T10:54:48.716Z,47.50
2017-06-12T10:57:17.035Z,47.50
2017-06-12T10:59:44.997Z,47.40
2017-06-12T11:02:13.818Z,47.70
2017-06-12T11:04:41.977Z,47.90
2017-06-12T11:07:09.525Z,47.80
2017-06-12T11:09:37.181Z,47.60
2017-06-12T11:12:04.775Z,47.70
2017-06-12T11:14:32.477Z,47.90
2017-06-12T11:17:00.796Z,47.20
2017-06-12T11:19:28.646Z,47.10
2017-06-12T11:21:56.385Z,46.90
2017-06-12T11:24:24.753Z,46.30
2017-06-12T11:26:52.305Z,46.30
2017-06-12T11:29:19.894Z,45.50
2017-06-12T11:31:47.447Z,45.10
2017-06-12T11:34:15.802Z,44.90
2017-06-12T11:36:43.339Z,44.90
2017-06-12T11:39:11.622Z,45.20
2017-06-12T11:41:39.168Z,45.40
2017-06-12T11:44:06.717Z,45.10
2017-06-12T11:46:34.642Z,45.30
2017-06-12T11:49:02.953Z,45.20
2017-06-12T11:51:30.516Z,45.20
2017-06-12T11:53:58.422Z,45.80
2017-06-12T11:56:25.964Z,45.80
2017-06-12T11:58:53.522Z,45.00
2017-06-12T12:01:21.342Z,44.90
2017-06-12T12:03:48.886Z,44.80
2017-06-12T12:06:16.420Z,45.00
2017-06-12T12:08:44.161Z,44.80
2017-06-12T12:11:11.821Z,44.90
2017-06-12T12:13:39.449Z,44.80
2017-06-12T12:16:07.002Z,44.80
2017-06-12T12:18:34.583Z,44.70
2017-06-12T12:21:02.138Z,44.90
2017-06-12T12:23:30.489Z,45.10
2017-06-12T12:25:58.034Z,45.10
2017-06-12T12:28:25.862Z,45.20
2017-06-12T12:30:53.414Z,45.60
2017-06-12T12:33:20.958Z,45.80
2017-06-12T12:35:49.309Z,45.50
2017-06-12T12:38:16.842Z,45.50
2017-06-12T12:40:44.742Z,45.70
2017-06-12T12:43:12.297Z,45.80
2017-06-12T12:45:39.846Z,45.50
2017-06-12T12:48:07.982Z,45.50
2017-06-12T12:50:35.526Z,45.60
2017-06-12T12:53:03.077Z,45.60
2017-06-12T12:55:31.437Z,45.50
2017-06-12T12:57:58.994Z,45.50
2017-06-12T13:00:26.576Z,45.20
2017-06-12T13:02:54.137Z,45.00
2017-06-12T13:05:21.836Z,44.80
2017-06-12T13:07:49.377Z,45.10
2017-06-12T13:10:19.821Z,45.40
2017-06-12T13:12:47.414Z,45.50
2017-06-12T13:15:14.979Z,45.70
2017-06-12T13:17:42.574Z,45.60
2017-06-12T13:20:10.139Z,45.60
2017-06-12T13:22:38.175Z,45.40
2017-06-12T13:25:05.827Z,45.30
2017-06-12T13:27:33.457Z,45.10
2017-06-12T13:30:01.014Z,45.40
2017-06-12T13:32:28.657Z,45.50
2017-06-12T13:34:56.459Z,45.70
2017-06-12T13:37:24.030Z,45.90
2017-06-12T13:39:51.576Z,45.70
2017-06-12T13:42:19.365Z,45.30
2017-06-12T13:44:46.929Z,45.60
2017-06-12T13:47:14.520Z,45.70
2017-06-12T13:49:42.873Z,45.80
2017-06-12T13:52:10.470Z,45.80
2017-06-12T13:54:38.101Z,45.80
2017-06-12T13:57:05.756Z,45.80
2017-06-12T13:59:33.310Z,45.60
2017-06-12T14:02:01.089Z,45.60
2017-06-12T14:04:28.710Z,46.00
2017-06-12T14:06:56.265Z,46.20
2017-06-12T14:09:23.832Z,46.20
2017-06-12T14:11:51.587Z,45.90
2017-06-12T14:14:19.146Z,45.80
2017-06-12T14:16:46.857Z,46.30
2017-06-12T14:19:14.411Z,46.10
2017-06-12T14:21:42.032Z,45.90
2017-06-12T14:24:09.589Z,45.90
2017-06-12T14:26:37.217Z,45.90
2017-06-12T14:29:05.534Z,45.90
2017-06-12T14:31:33.078Z,45.80
2017-06-12T14:34:01.085Z,45.90
2017-06-12T14:36:28.629Z,45.60
2017-06-12T14:38:56.190Z,45.70
2017-06-12T14:41:23.826Z,45.40
2017-06-12T14:43:51.385Z,46.20
2017-06-12T14:46:19.698Z,45.30
2017-06-12T14:48:47.366Z,45.20
2017-06-12T14:51:14.907Z,45.30
2017-06-12T14:53:42.450Z,45.40
2017-06-12T14:56:10.178Z,45.40
2017-06-12T14:58:37.737Z,45.30
2017-06-12T15:01:05.329Z,45.50
2017-06-12T15:03:33.649Z,45.50
2017-06-12T15:06:01.238Z,45.50
2017-06-12T15:08:28.791Z,45.90
2017-06-12T15:10:56.353Z,46.90
2017-06-12T15:13:26.592Z,45.90
2017-06-12T15:15:54.135Z,45.80
2017-06-12T15:18:22.121Z,45.90
2017-06-12T15:20:49.677Z,46.20
2017-06-12T15:23:17.275Z,46.50
2017-06-12T15:25:44.850Z,46.10
2017-06-12T15:28:13.687Z,46.20
2017-06-12T15:30:41.254Z,46.40
2017-06-12T15:33:08.908Z,46.50
2017-06-12T15:35:36.633Z,46.80
2017-06-12T15:38:04.284Z,47.20
2017-06-12T15:40:31.971Z,47.60
2017-06-12T15:42:59.542Z,47.70
2017-06-12T15:45:27.153Z,47.40
2017-06-12T15:47:54.987Z,47.60
2017-06-12T15:50:22.576Z,47.80
2017-06-12T15:52:50.246Z,47.60
2017-06-12T15:55:17.823Z,47.50
2017-06-12T15:57:45.450Z,47.70
2017-06-12T16:00:13.776Z,48.10
2017-06-12T16:02:41.342Z,48.10
2017-06-12T16:05:09.206Z,48.00
2017-06-12T16:07:36.805Z,48.20
2017-06-12T16:10:04.384Z,48.50
2017-06-12T16:12:32.055Z,48.80
2017-06-12T16:15:00.429Z,48.80
2017-06-12T16:17:28.750Z,48.90
2017-06-12T16:19:56.311Z,48.90
2017-06-12T16:22:24.174Z,49.10
2017-06-12T16:24:51.729Z,48.90
2017-06-12T16:27:19.330Z,48.70
2017-06-12T16:29:46.889Z,48.70
2017-06-12T16:32:14.508Z,48.70
2017-06-12T16:34:42.062Z,48.80
2017-06-12T16:37:09.646Z,48.90
2017-06-12T16:39:37.426Z,48.90
2017-06-12T16:42:04.969Z,48.90
2017-06-12T16:44:32.582Z,49.20
2017-06-12T16:47:00.897Z,49.60
2017-06-12T16:49:28.484Z,49.50
2017-06-12T16:51:56.033Z,49.50
2017-06-12T16:54:23.709Z,49.60
2017-06-12T16:56:51.287Z,49.60
2017-06-12T16:59:18.842Z,50.10
2017-06-12T17:01:46.594Z,50.50
2017-06-12T17:04:14.137Z,50.90
2017-06-12T17:06:41.767Z,50.70
2017-06-12T17:09:09.321Z,50.60
2017-06-12T17:11:38.093Z,50.30
2017-06-12T17:14:06.405Z,50.30
2017-06-12T17:16:33.945Z,50.30
2017-06-12T17:19:02.589Z,50.30
2017-06-12T17:21:30.130Z,50.30
2017-06-12T17:23:57.749Z,50.20
2017-06-12T17:26:26.067Z,50.40
2017-06-12T17:28:53.626Z,50.40
2017-06-12T17:31:21.216Z,50.40
2017-06-12T17:33:48.762Z,50.30
2017-06-12T17:36:16.642Z,50.20
2017-06-12T17:38:44.186Z,50.30
2017-06-12T17:41:11.765Z,50.20
2017-06-12T17:43:39.410Z,50.20
2017-06-12T17:46:06.962Z,50.30
2017-06-12T17:48:34.523Z,50.50
2017-06-12T17:51:02.117Z,50.60
2017-06-12T17:53:29.830Z,50.70
2017-06-12T17:55:57.389Z,50.60
2017-06-12T17:58:25.465Z,50.70
2017-06-12T18:00:53.030Z,50.60
2017-06-12T18:03:20.603Z,50.70
2017-06-12T18:05:48.342Z,50.70
2017-06-12T18:08:15.886Z,50.90
2017-06-12T18:10:48.603Z,50.90
2017-06-12T18:13:16.164Z,50.90
2017-06-12T18:15:43.742Z,51.00
2017-06-12T18:18:11.391Z,51.10
2017-06-12T18:20:38.946Z,51.40
2017-06-12T18:23:06.529Z,51.40
2017-06-12T18:25:34.066Z,51.40
2017-06-12T18:28:01.786Z,51.70
2017-06-12T18:30:30.102Z,51.70
2017-06-12T18:32:57.658Z,51.60
2017-06-12T18:35:25.407Z,51.80
2017-06-12T18:37:52.957Z,51.60
2017-06-12T18:40:20.585Z,51.50
2017-06-12T18:42:48.142Z,51.70
2017-06-12T18:45:15.689Z,51.60
2017-06-12T18:47:43.281Z,51.50
2017-06-12T18:50:10.826Z,51.60
2017-06-12T18:52:38.549Z,51.50
2017-06-12T18:55:06.093Z,51.80
2017-06-12T18:57:33.984Z,51.60
2017-06-12T19:00:01.541Z,51.70
2017-06-12T19:02:29.092Z,51.80
2017-06-12T19:04:56.750Z,51.80
2017-06-12T19:07:24.338Z,52.00
2017-06-12T19:09:52.065Z,52.10
2017-06-12T19:12:20.805Z,52.50
2017-06-12T19:14:48.389Z,52.50
2017-06-12T19:17:15.928Z,52.50
2017-06-12T19:19:43.473Z,52.60
2017-06-12T19:22:11.065Z,52.70
2017-06-12T19:24:38.606Z,52.90
2017-06-12T19:27:06.345Z,52.90
2017-06-12T19:29:33.889Z,53.00
2017-06-12T19:32:01.433Z,52.90
2017-06-12T19:34:29.786Z,53.00
2017-06-12T19:36:57.334Z,52.90
2017-06-12T19:39:25.042Z,53.00
2017-06-12T19:41:52.591Z,53.10
2017-06-12T19:44:20.905Z,53.40
2017-06-12T19:46:48.559Z,53.40
2017-06-12T19:49:16.102Z,53.50
2017-06-12T19:51:45.770Z,53.70
2017-06-12T19:54:13.310Z,53.70
2017-06-12T19:56:41.054Z,53.90
2017-06-12T19:59:08.602Z,54.00
2017-06-12T20:01:36.150Z,54.00
2017-06-12T20:04:04.892Z,54.20
2017-06-12T20:06:32.439Z,54.20
2017-06-12T20:08:59.981Z,54.40
2017-06-12T20:11:28.423Z,54.60
2017-06-12T20:14:00.397Z,54.80
2017-06-12T20:16:27.941Z,55.00
2017-06-12T20:18:55.522Z,55.10
2017-06-12T20:21:23.847Z,55.50
2017-06-12T20:23:51.451Z,55.50
2017-06-12T20:26:19.015Z,55.60
2017-06-12T20:28:47.333Z,55.80
2017-06-12T20:31:14.985Z,55.70
2017-06-12T20:33:42.530Z,55.80
2017-06-12T20:36:10.881Z,55.90
2017-06-12T20:38:38.437Z,55.80
2017-06-12T20:41:06.021Z,55.90
2017-06-12T20:43:34.333Z,56.40
2017-06-12T20:46:01.986Z,56.40
2017-06-12T20:48:29.994Z,56.60
2017-06-12T20:50:57.542Z,56.80
2017-06-12T20:53:25.090Z,56.90
2017-06-12T20:55:52.682Z,57.00
2017-06-12T20:58:20.270Z,57.10
2017-06-12T21:00:47.869Z,57.10
2017-06-12T21:03:15.422Z,57.00
2017-06-12T21:05:43.204Z,56.90
2017-06-12T21:08:10.759Z,56.90
2017-06-12T21:10:38.350Z,57.00
2017-06-12T21:13:06.010Z,57.20
2017-06-12T21:15:33.565Z,57.30
2017-06-12T21:18:01.186Z,57.40
2017-06-12T21:20:28.761Z,57.40
2017-06-12T21:22:56.318Z,57.50
2017-06-12T21:25:27.681Z,57.50
2017-06-12T21:27:55.302Z,57.60
2017-06-12T21:30:23.615Z,57.60
2017-06-12T21:32:51.171Z,57.60
2017-06-12T21:35:18.774Z,57.70
2017-06-12T21:37:46.365Z,57.70
2017-06-12T21:40:14.134Z,57.70
2017-06-12T21:42:41.699Z,57.80
2017-06-12T21:45:09.310Z,57.80
2017-06-12T21:47:36.866Z,57.80
2017-06-12T21:50:04.517Z,57.70
2017-06-12T21:52:32.112Z,57.70
2017-06-12T21:54:59.737Z,57.80
2017-06-12T21:57:27.285Z,57.90
2017-06-12T21:59:54.830Z,58.00
2017-06-12T22:02:22.657Z,57.90
2017-06-12T22:04:50.247Z,57.90
2017-06-12T22:07:17.854Z,57.90
2017-06-12T22:09:45.406Z,58.00
2017-06-12T22:12:12.966Z,58.10
2017-06-12T22:14:40.553Z,58.20
2017-06-12T22:17:08.158Z,58.20
2017-06-12T22:19:35.745Z,58.20
2017-06-12T22:22:03.505Z,58.20
2017-06-12T22:24:31.150Z,58.30
2017-06-12T22:26:58.701Z,58.30
2017-06-12T22:29:28.801Z,58.20
2017-06-12T22:31:57.118Z,58.70
2017-06-12T22:34:24.673Z,58.30
2017-06-12T22:36:52.582Z,58.20
2017-06-12T22:39:20.120Z,58.30
2017-06-12T22:41:47.670Z,58.30
2017-06-12T22:44:15.258Z,58.40
2017-06-12T22:46:42.835Z,58.30
2017-06-12T22:49:10.426Z,58.30
2017-06-12T22:51:38.846Z,58.60
2017-06-12T22:54:06.389Z,58.50
2017-06-12T22:56:34.038Z,58.70
2017-06-12T22:59:01.585Z,58.90
2017-06-12T23:01:29.138Z,58.80
2017-06-12T23:04:01.591Z,58.90
2017-06-12T23:06:29.153Z,59.00
2017-06-12T23:08:56.702Z,59.10
2017-06-12T23:11:24.333Z,59.30
2017-06-12T23:13:51.922Z,59.50
2017-06-12T23:16:19.463Z,59.60
2017-06-12T23:18:47.046Z,59.70
2017-06-12T23:21:14.686Z,59.80
2017-06-12T23:23:42.442Z,59.90
2017-06-12T23:26:15.747Z,60.00
2017-06-12T23:28:43.342Z,60.00
2017-06-12T23:31:11.258Z,60.00
2017-06-12T23:33:38.802Z,60.10
2017-06-12T23:36:06.350Z,60.20
2017-06-12T23:38:34.046Z,60.30
2017-06-12T23:41:01.783Z,60.60
2017-06-12T23:43:29.330Z,60.70
2017-06-12T23:45:56.882Z,60.80
2017-06-12T23:48:24.479Z,60.90
2017-06-12T23:50:52.028Z,60.90
2017-06-12T23:53:20.336Z,61.20
2017-06-12T23:55:48.122Z,61.10
2017-06-12T23:58:15.733Z,61.20
